sensor_id;sensor_type;location;lat;lon;timestamp;P1;durP1;ratioP1;P2;durP2;ratioP2
51475;SDS011;37554;50.362;7.568;2024-01-11T00:00:49;23.02;;;15.65;;
51475;SDS011;37554;50.362;7.568;2024-01-11T00:03:14;23.75;;;16.10;;
51475;SDS011;37554;50.362;7.568;2024-01-11T00:05:40;22.17;;;15.13;;
51475;SDS011;37554;50.362;7.568;2024-01-11T00:08:06;22.45;;;15.23;;
51475;SDS011;37554;50.362;7.568;2024-01-11T00:10:32;22.05;;;15.02;;
51475;SDS011;37554;50.362;7.568;2024-01-11T00:12:58;21.98;;;14.73;;
51475;SDS011;37554;50.362;7.568;2024-01-11T00:15:23;22.48;;;15.10;;
51475;SDS011;37554;50.362;7.568;2024-01-11T00:17:49;19.75;;;14.13;;
51475;SDS011;37554;50.362;7.568;2024-01-11T00:20:15;19.85;;;15.00;;
51475;SDS011;37554;50.362;7.568;2024-01-11T00:22:40;21.88;;;14.75;;
51475;SDS011;37554;50.362;7.568;2024-01-11T00:25:06;22.02;;;14.82;;
51475;SDS011;37554;50.362;7.568;2024-01-11T00:27:32;22.27;;;14.80;;
51475;SDS011;37554;50.362;7.568;2024-01-11T00:29:58;22.15;;;15.30;;
51475;SDS011;37554;50.362;7.568;2024-01-11T00:32:24;21.75;;;15.35;;
51475;SDS011;37554;50.362;7.568;2024-01-11T00:34:49;21.40;;;14.82;;
51475;SDS011;37554;50.362;7.568;2024-01-11T00:37:16;20.27;;;14.57;;
51475;SDS011;37554;50.362;7.568;2024-01-11T00:39:41;21.85;;;14.90;;
51475;SDS011;37554;50.362;7.568;2024-01-11T00:42:07;22.55;;;14.50;;
51475;SDS011;37554;50.362;7.568;2024-01-11T00:44:33;24.92;;;16.08;;
51475;SDS011;37554;50.362;7.568;2024-01-11T00:46:59;20.55;;;15.18;;
51475;SDS011;37554;50.362;7.568;2024-01-11T00:49:24;20.73;;;14.68;;
51475;SDS011;37554;50.362;7.568;2024-01-11T00:51:50;23.70;;;15.45;;
51475;SDS011;37554;50.362;7.568;2024-01-11T00:54:15;21.63;;;14.88;;
51475;SDS011;37554;50.362;7.568;2024-01-11T00:56:41;22.90;;;16.00;;
51475;SDS011;37554;50.362;7.568;2024-01-11T00:59:06;22.83;;;15.27;;
51475;SDS011;37554;50.362;7.568;2024-01-11T01:01:32;22.08;;;15.63;;
51475;SDS011;37554;50.362;7.568;2024-01-11T01:03:58;22.25;;;15.10;;
51475;SDS011;37554;50.362;7.568;2024-01-11T01:06:23;22.85;;;14.73;;
51475;SDS011;37554;50.362;7.568;2024-01-11T01:08:49;22.63;;;15.63;;
51475;SDS011;37554;50.362;7.568;2024-01-11T01:11:15;22.00;;;14.90;;
51475;SDS011;37554;50.362;7.568;2024-01-11T01:13:40;22.27;;;14.57;;
51475;SDS011;37554;50.362;7.568;2024-01-11T01:16:06;23.60;;;16.30;;
51475;SDS011;37554;50.362;7.568;2024-01-11T01:18:32;24.33;;;15.95;;
51475;SDS011;37554;50.362;7.568;2024-01-11T01:20:58;21.45;;;15.45;;
51475;SDS011;37554;50.362;7.568;2024-01-11T01:23:23;21.85;;;14.90;;
51475;SDS011;37554;50.362;7.568;2024-01-11T01:25:49;21.33;;;15.60;;
51475;SDS011;37554;50.362;7.568;2024-01-11T01:28:14;21.80;;;14.38;;
51475;SDS011;37554;50.362;7.568;2024-01-11T01:30:40;21.75;;;15.38;;
51475;SDS011;37554;50.362;7.568;2024-01-11T01:33:06;19.58;;;14.25;;
51475;SDS011;37554;50.362;7.568;2024-01-11T01:35:31;23.38;;;15.93;;
51475;SDS011;37554;50.362;7.568;2024-01-11T01:37:58;22.08;;;14.43;;
51475;SDS011;37554;50.362;7.568;2024-01-11T01:40:24;22.83;;;14.75;;
51475;SDS011;37554;50.362;7.568;2024-01-11T01:42:49;22.80;;;14.82;;
51475;SDS011;37554;50.362;7.568;2024-01-11T01:45:15;21.10;;;15.02;;
51475;SDS011;37554;50.362;7.568;2024-01-11T01:47:42;21.90;;;15.48;;
51475;SDS011;37554;50.362;7.568;2024-01-11T01:50:09;20.98;;;14.68;;
51475;SDS011;37554;50.362;7.568;2024-01-11T01:52:36;21.42;;;15.18;;
51475;SDS011;37554;50.362;7.568;2024-01-11T01:55:04;21.95;;;15.32;;
51475;SDS011;37554;50.362;7.568;2024-01-11T01:57:32;21.13;;;14.65;;
51475;SDS011;37554;50.362;7.568;2024-01-11T01:59:59;23.08;;;15.52;;
51475;SDS011;37554;50.362;7.568;2024-01-11T02:02:27;23.23;;;15.88;;
51475;SDS011;37554;50.362;7.568;2024-01-11T02:04:53;21.75;;;15.02;;
51475;SDS011;37554;50.362;7.568;2024-01-11T02:07:19;24.13;;;16.05;;
51475;SDS011;37554;50.362;7.568;2024-01-11T02:09:45;25.20;;;15.30;;
51475;SDS011;37554;50.362;7.568;2024-01-11T02:12:12;23.77;;;16.58;;
51475;SDS011;37554;50.362;7.568;2024-01-11T02:14:38;23.92;;;16.65;;
51475;SDS011;37554;50.362;7.568;2024-01-11T02:17:04;22.30;;;16.23;;
51475;SDS011;37554;50.362;7.568;2024-01-11T02:19:30;21.42;;;14.75;;
51475;SDS011;37554;50.362;7.568;2024-01-11T02:21:57;20.70;;;15.45;;
51475;SDS011;37554;50.362;7.568;2024-01-11T02:24:27;21.92;;;14.85;;
51475;SDS011;37554;50.362;7.568;2024-01-11T02:27:00;21.38;;;14.70;;
51475;SDS011;37554;50.362;7.568;2024-01-11T02:29:28;20.27;;;13.77;;
51475;SDS011;37554;50.362;7.568;2024-01-11T02:31:54;20.95;;;14.88;;
51475;SDS011;37554;50.362;7.568;2024-01-11T02:34:21;23.35;;;15.68;;
51475;SDS011;37554;50.362;7.568;2024-01-11T02:36:50;21.70;;;15.05;;
51475;SDS011;37554;50.362;7.568;2024-01-11T02:39:16;22.02;;;15.20;;
51475;SDS011;37554;50.362;7.568;2024-01-11T02:41:44;21.05;;;15.13;;
51475;SDS011;37554;50.362;7.568;2024-01-11T02:44:10;20.63;;;15.20;;
51475;SDS011;37554;50.362;7.568;2024-01-11T02:46:36;21.45;;;15.02;;
51475;SDS011;37554;50.362;7.568;2024-01-11T02:49:01;23.20;;;15.50;;
51475;SDS011;37554;50.362;7.568;2024-01-11T02:51:27;20.35;;;14.73;;
51475;SDS011;37554;50.362;7.568;2024-01-11T02:53:53;21.02;;;14.60;;
51475;SDS011;37554;50.362;7.568;2024-01-11T02:56:19;22.42;;;15.90;;
51475;SDS011;37554;50.362;7.568;2024-01-11T02:58:44;21.40;;;15.60;;
51475;SDS011;37554;50.362;7.568;2024-01-11T03:01:10;23.25;;;14.93;;
51475;SDS011;37554;50.362;7.568;2024-01-11T03:03:36;19.75;;;14.95;;
51475;SDS011;37554;50.362;7.568;2024-01-11T03:06:01;20.33;;;15.27;;
51475;SDS011;37554;50.362;7.568;2024-01-11T03:08:27;24.80;;;15.95;;
51475;SDS011;37554;50.362;7.568;2024-01-11T03:10:54;22.10;;;15.07;;
51475;SDS011;37554;50.362;7.568;2024-01-11T03:13:20;23.20;;;15.88;;
51475;SDS011;37554;50.362;7.568;2024-01-11T03:15:46;20.85;;;14.43;;
51475;SDS011;37554;50.362;7.568;2024-01-11T03:18:11;21.80;;;14.88;;
51475;SDS011;37554;50.362;7.568;2024-01-11T03:20:37;22.33;;;15.40;;
51475;SDS011;37554;50.362;7.568;2024-01-11T03:23:03;23.67;;;15.50;;
51475;SDS011;37554;50.362;7.568;2024-01-11T03:25:31;19.70;;;13.68;;
51475;SDS011;37554;50.362;7.568;2024-01-11T03:28:00;21.73;;;15.93;;
51475;SDS011;37554;50.362;7.568;2024-01-11T03:30:25;19.17;;;14.90;;
51475;SDS011;37554;50.362;7.568;2024-01-11T03:32:51;23.05;;;15.18;;
51475;SDS011;37554;50.362;7.568;2024-01-11T03:35:17;22.35;;;15.45;;
51475;SDS011;37554;50.362;7.568;2024-01-11T03:37:44;22.58;;;15.75;;
51475;SDS011;37554;50.362;7.568;2024-01-11T03:40:10;20.45;;;14.68;;
51475;SDS011;37554;50.362;7.568;2024-01-11T03:42:36;19.85;;;14.27;;
51475;SDS011;37554;50.362;7.568;2024-01-11T03:45:02;22.75;;;15.75;;
51475;SDS011;37554;50.362;7.568;2024-01-11T03:47:28;21.35;;;14.85;;
51475;SDS011;37554;50.362;7.568;2024-01-11T03:49:54;19.77;;;14.30;;
51475;SDS011;37554;50.362;7.568;2024-01-11T03:52:19;22.40;;;15.48;;
51475;SDS011;37554;50.362;7.568;2024-01-11T03:54:45;21.27;;;14.43;;
51475;SDS011;37554;50.362;7.568;2024-01-11T03:57:11;23.35;;;14.93;;
51475;SDS011;37554;50.362;7.568;2024-01-11T03:59:36;21.05;;;14.93;;
51475;SDS011;37554;50.362;7.568;2024-01-11T04:02:02;20.25;;;14.38;;
51475;SDS011;37554;50.362;7.568;2024-01-11T04:04:27;21.48;;;14.30;;
51475;SDS011;37554;50.362;7.568;2024-01-11T04:06:53;21.38;;;15.07;;
51475;SDS011;37554;50.362;7.568;2024-01-11T04:09:19;22.23;;;16.02;;
51475;SDS011;37554;50.362;7.568;2024-01-11T04:11:45;22.17;;;14.98;;
51475;SDS011;37554;50.362;7.568;2024-01-11T04:14:11;20.73;;;14.57;;
51475;SDS011;37554;50.362;7.568;2024-01-11T04:16:40;20.67;;;14.73;;
51475;SDS011;37554;50.362;7.568;2024-01-11T04:19:09;23.95;;;15.20;;
51475;SDS011;37554;50.362;7.568;2024-01-11T04:21:35;21.20;;;13.93;;
51475;SDS011;37554;50.362;7.568;2024-01-11T04:24:03;21.63;;;14.48;;
51475;SDS011;37554;50.362;7.568;2024-01-11T04:26:30;19.58;;;14.18;;
51475;SDS011;37554;50.362;7.568;2024-01-11T04:28:56;19.98;;;14.48;;
51475;SDS011;37554;50.362;7.568;2024-01-11T04:31:23;21.92;;;15.07;;
51475;SDS011;37554;50.362;7.568;2024-01-11T04:33:49;21.83;;;14.80;;
51475;SDS011;37554;50.362;7.568;2024-01-11T04:36:14;23.58;;;15.15;;
51475;SDS011;37554;50.362;7.568;2024-01-11T04:38:40;21.58;;;14.95;;
51475;SDS011;37554;50.362;7.568;2024-01-11T04:41:09;21.25;;;14.57;;
51475;SDS011;37554;50.362;7.568;2024-01-11T04:43:39;20.13;;;14.27;;
51475;SDS011;37554;50.362;7.568;2024-01-11T04:48:44;18.33;;;13.50;;
51475;SDS011;37554;50.362;7.568;2024-01-11T04:51:11;19.88;;;14.18;;
51475;SDS011;37554;50.362;7.568;2024-01-11T04:53:38;23.35;;;14.93;;
51475;SDS011;37554;50.362;7.568;2024-01-11T04:56:06;21.45;;;14.77;;
51475;SDS011;37554;50.362;7.568;2024-01-11T04:58:32;21.80;;;14.80;;
51475;SDS011;37554;50.362;7.568;2024-01-11T05:00:58;21.05;;;14.10;;
51475;SDS011;37554;50.362;7.568;2024-01-11T05:03:24;20.50;;;14.35;;
51475;SDS011;37554;50.362;7.568;2024-01-11T05:05:50;19.13;;;14.45;;
51475;SDS011;37554;50.362;7.568;2024-01-11T05:08:16;21.65;;;14.77;;
51475;SDS011;37554;50.362;7.568;2024-01-11T05:10:42;20.45;;;14.30;;
51475;SDS011;37554;50.362;7.568;2024-01-11T05:13:07;20.90;;;14.80;;
51475;SDS011;37554;50.362;7.568;2024-01-11T05:15:34;22.05;;;14.82;;
51475;SDS011;37554;50.362;7.568;2024-01-11T05:17:59;19.75;;;14.20;;
51475;SDS011;37554;50.362;7.568;2024-01-11T05:20:25;19.38;;;13.57;;
51475;SDS011;37554;50.362;7.568;2024-01-11T05:22:50;22.45;;;14.60;;
51475;SDS011;37554;50.362;7.568;2024-01-11T05:25:16;20.17;;;15.00;;
51475;SDS011;37554;50.362;7.568;2024-01-11T05:27:42;22.23;;;15.13;;
51475;SDS011;37554;50.362;7.568;2024-01-11T05:30:07;23.58;;;14.73;;
51475;SDS011;37554;50.362;7.568;2024-01-11T05:32:34;22.50;;;14.90;;
51475;SDS011;37554;50.362;7.568;2024-01-11T05:35:00;21.02;;;14.75;;
51475;SDS011;37554;50.362;7.568;2024-01-11T05:37:26;20.38;;;14.25;;
51475;SDS011;37554;50.362;7.568;2024-01-11T05:39:51;19.42;;;13.45;;
51475;SDS011;37554;50.362;7.568;2024-01-11T05:42:17;17.13;;;13.65;;
51475;SDS011;37554;50.362;7.568;2024-01-11T05:44:42;18.02;;;12.75;;
51475;SDS011;37554;50.362;7.568;2024-01-11T05:47:08;20.25;;;13.73;;
51475;SDS011;37554;50.362;7.568;2024-01-11T05:49:34;21.25;;;12.95;;
51475;SDS011;37554;50.362;7.568;2024-01-11T05:52:00;19.77;;;13.27;;
51475;SDS011;37554;50.362;7.568;2024-01-11T05:54:25;20.27;;;13.55;;
51475;SDS011;37554;50.362;7.568;2024-01-11T05:56:53;18.90;;;13.50;;
51475;SDS011;37554;50.362;7.568;2024-01-11T05:59:21;19.30;;;12.98;;
51475;SDS011;37554;50.362;7.568;2024-01-11T06:01:47;20.55;;;13.93;;
51475;SDS011;37554;50.362;7.568;2024-01-11T06:04:12;17.05;;;12.80;;
51475;SDS011;37554;50.362;7.568;2024-01-11T06:06:39;19.52;;;12.95;;
51475;SDS011;37554;50.362;7.568;2024-01-11T06:09:05;19.13;;;13.35;;
51475;SDS011;37554;50.362;7.568;2024-01-11T06:11:31;20.33;;;13.73;;
51475;SDS011;37554;50.362;7.568;2024-01-11T06:13:56;19.40;;;13.57;;
51475;SDS011;37554;50.362;7.568;2024-01-11T06:16:22;19.40;;;13.48;;
51475;SDS011;37554;50.362;7.568;2024-01-11T06:18:48;19.88;;;14.05;;
51475;SDS011;37554;50.362;7.568;2024-01-11T06:21:14;21.00;;;14.23;;
51475;SDS011;37554;50.362;7.568;2024-01-11T06:23:42;21.52;;;14.07;;
51475;SDS011;37554;50.362;7.568;2024-01-11T06:26:10;19.55;;;14.20;;
51475;SDS011;37554;50.362;7.568;2024-01-11T06:28:36;20.77;;;14.57;;
51475;SDS011;37554;50.362;7.568;2024-01-11T06:31:02;21.92;;;15.18;;
51475;SDS011;37554;50.362;7.568;2024-01-11T06:33:28;23.13;;;14.27;;
51475;SDS011;37554;50.362;7.568;2024-01-11T06:35:54;21.50;;;15.00;;
51475;SDS011;37554;50.362;7.568;2024-01-11T06:38:20;19.83;;;14.13;;
51475;SDS011;37554;50.362;7.568;2024-01-11T06:40:46;22.85;;;14.68;;
51475;SDS011;37554;50.362;7.568;2024-01-11T06:43:13;21.48;;;14.80;;
51475;SDS011;37554;50.362;7.568;2024-01-11T06:45:40;19.92;;;14.10;;
51475;SDS011;37554;50.362;7.568;2024-01-11T06:48:07;26.90;;;16.88;;
51475;SDS011;37554;50.362;7.568;2024-01-11T06:50:33;28.08;;;18.90;;
51475;SDS011;37554;50.362;7.568;2024-01-11T06:52:59;32.58;;;21.65;;
51475;SDS011;37554;50.362;7.568;2024-01-11T06:55:25;29.13;;;19.92;;
51475;SDS011;37554;50.362;7.568;2024-01-11T06:57:50;27.73;;;18.83;;
51475;SDS011;37554;50.362;7.568;2024-01-11T07:00:16;29.17;;;18.15;;
51475;SDS011;37554;50.362;7.568;2024-01-11T07:02:42;27.50;;;18.55;;
51475;SDS011;37554;50.362;7.568;2024-01-11T07:05:07;26.65;;;17.67;;
51475;SDS011;37554;50.362;7.568;2024-01-11T07:07:33;23.05;;;15.77;;
51475;SDS011;37554;50.362;7.568;2024-01-11T07:09:59;28.25;;;16.73;;
51475;SDS011;37554;50.362;7.568;2024-01-11T07:12:25;23.92;;;16.63;;
51475;SDS011;37554;50.362;7.568;2024-01-11T07:14:50;23.33;;;15.60;;
51475;SDS011;37554;50.362;7.568;2024-01-11T07:17:16;25.33;;;16.35;;
51475;SDS011;37554;50.362;7.568;2024-01-11T07:19:42;20.65;;;15.02;;
51475;SDS011;37554;50.362;7.568;2024-01-11T07:22:08;21.92;;;14.82;;
51475;SDS011;37554;50.362;7.568;2024-01-11T07:24:33;22.75;;;15.48;;
51475;SDS011;37554;50.362;7.568;2024-01-11T07:27:05;20.02;;;15.52;;
51475;SDS011;37554;50.362;7.568;2024-01-11T07:29:35;20.10;;;14.30;;
51475;SDS011;37554;50.362;7.568;2024-01-11T07:32:01;19.45;;;14.65;;
51475;SDS011;37554;50.362;7.568;2024-01-11T07:34:28;21.73;;;15.52;;
51475;SDS011;37554;50.362;7.568;2024-01-11T07:36:54;20.55;;;15.02;;
51475;SDS011;37554;50.362;7.568;2024-01-11T07:39:21;22.70;;;15.48;;
51475;SDS011;37554;50.362;7.568;2024-01-11T07:41:47;22.27;;;14.77;;
51475;SDS011;37554;50.362;7.568;2024-01-11T07:44:13;20.02;;;14.70;;
51475;SDS011;37554;50.362;7.568;2024-01-11T07:46:39;23.00;;;15.48;;
51475;SDS011;37554;50.362;7.568;2024-01-11T07:49:05;22.92;;;15.05;;
51475;SDS011;37554;50.362;7.568;2024-01-11T07:51:32;22.35;;;15.00;;
51475;SDS011;37554;50.362;7.568;2024-01-11T07:53:59;22.83;;;15.55;;
51475;SDS011;37554;50.362;7.568;2024-01-11T07:56:25;21.85;;;14.45;;
51475;SDS011;37554;50.362;7.568;2024-01-11T07:58:51;24.27;;;15.05;;
51475;SDS011;37554;50.362;7.568;2024-01-11T08:01:17;24.80;;;15.70;;
51475;SDS011;37554;50.362;7.568;2024-01-11T08:03:43;21.92;;;14.77;;
51475;SDS011;37554;50.362;7.568;2024-01-11T08:06:12;22.98;;;15.73;;
51475;SDS011;37554;50.362;7.568;2024-01-11T08:08:38;21.98;;;15.07;;
51475;SDS011;37554;50.362;7.568;2024-01-11T08:11:04;22.63;;;15.57;;
51475;SDS011;37554;50.362;7.568;2024-01-11T08:13:32;20.48;;;14.63;;
51475;SDS011;37554;50.362;7.568;2024-01-11T08:16:00;21.70;;;15.27;;
51475;SDS011;37554;50.362;7.568;2024-01-11T08:18:26;26.88;;;16.30;;
51475;SDS011;37554;50.362;7.568;2024-01-11T08:20:52;22.17;;;14.95;;
51475;SDS011;37554;50.362;7.568;2024-01-11T08:23:17;18.88;;;14.27;;
51475;SDS011;37554;50.362;7.568;2024-01-11T08:25:43;21.13;;;15.32;;
51475;SDS011;37554;50.362;7.568;2024-01-11T08:28:09;22.98;;;15.48;;
51475;SDS011;37554;50.362;7.568;2024-01-11T08:30:34;20.88;;;15.02;;
51475;SDS011;37554;50.362;7.568;2024-01-11T08:33:01;21.05;;;14.68;;
51475;SDS011;37554;50.362;7.568;2024-01-11T08:35:28;21.13;;;15.35;;
51475;SDS011;37554;50.362;7.568;2024-01-11T08:37:55;24.00;;;15.02;;
51475;SDS011;37554;50.362;7.568;2024-01-11T08:40:20;25.45;;;16.77;;
51475;SDS011;37554;50.362;7.568;2024-01-11T08:42:46;23.40;;;14.95;;
51475;SDS011;37554;50.362;7.568;2024-01-11T08:45:12;23.15;;;15.07;;
51475;SDS011;37554;50.362;7.568;2024-01-11T08:47:43;21.33;;;15.32;;
51475;SDS011;37554;50.362;7.568;2024-01-11T08:50:14;21.63;;;15.13;;
51475;SDS011;37554;50.362;7.568;2024-01-11T08:52:41;20.02;;;14.63;;
51475;SDS011;37554;50.362;7.568;2024-01-11T08:55:07;23.95;;;15.75;;
51475;SDS011;37554;50.362;7.568;2024-01-11T08:57:33;21.98;;;15.38;;
51475;SDS011;37554;50.362;7.568;2024-01-11T09:00:01;20.90;;;15.02;;
51475;SDS011;37554;50.362;7.568;2024-01-11T09:02:29;19.60;;;14.00;;
51475;SDS011;37554;50.362;7.568;2024-01-11T09:04:54;22.92;;;15.68;;
51475;SDS011;37554;50.362;7.568;2024-01-11T09:07:20;23.05;;;15.70;;
51475;SDS011;37554;50.362;7.568;2024-01-11T09:09:45;21.38;;;15.30;;
51475;SDS011;37554;50.362;7.568;2024-01-11T09:12:11;21.25;;;14.32;;
51475;SDS011;37554;50.362;7.568;2024-01-11T09:14:37;20.35;;;14.85;;
51475;SDS011;37554;50.362;7.568;2024-01-11T09:17:04;21.02;;;14.60;;
51475;SDS011;37554;50.362;7.568;2024-01-11T09:19:31;22.40;;;15.55;;
51475;SDS011;37554;50.362;7.568;2024-01-11T09:21:58;21.75;;;15.95;;
51475;SDS011;37554;50.362;7.568;2024-01-11T09:24:24;21.98;;;16.00;;
51475;SDS011;37554;50.362;7.568;2024-01-11T09:26:50;22.98;;;15.80;;
51475;SDS011;37554;50.362;7.568;2024-01-11T09:29:16;21.67;;;15.88;;
51475;SDS011;37554;50.362;7.568;2024-01-11T09:31:42;20.67;;;15.70;;
51475;SDS011;37554;50.362;7.568;2024-01-11T09:34:07;22.98;;;16.08;;
51475;SDS011;37554;50.362;7.568;2024-01-11T09:36:33;21.92;;;15.45;;
51475;SDS011;37554;50.362;7.568;2024-01-11T09:38:59;23.42;;;16.38;;
51475;SDS011;37554;50.362;7.568;2024-01-11T09:41:24;24.33;;;16.95;;
51475;SDS011;37554;50.362;7.568;2024-01-11T09:43:52;22.60;;;16.30;;
51475;SDS011;37554;50.362;7.568;2024-01-11T09:46:19;21.00;;;15.35;;
51475;SDS011;37554;50.362;7.568;2024-01-11T09:48:46;22.27;;;15.88;;
51475;SDS011;37554;50.362;7.568;2024-01-11T09:51:14;22.50;;;16.15;;
51475;SDS011;37554;50.362;7.568;2024-01-11T09:53:39;20.85;;;16.27;;
51475;SDS011;37554;50.362;7.568;2024-01-11T09:56:07;22.17;;;15.98;;
51475;SDS011;37554;50.362;7.568;2024-01-11T09:58:35;23.88;;;16.52;;
51475;SDS011;37554;50.362;7.568;2024-01-11T10:01:05;23.50;;;16.42;;
51475;SDS011;37554;50.362;7.568;2024-01-11T10:03:34;24.05;;;16.08;;
51475;SDS011;37554;50.362;7.568;2024-01-11T10:06:00;21.30;;;15.63;;
51475;SDS011;37554;50.362;7.568;2024-01-11T10:08:27;21.58;;;15.73;;
51475;SDS011;37554;50.362;7.568;2024-01-11T10:10:54;24.90;;;17.02;;
51475;SDS011;37554;50.362;7.568;2024-01-11T10:13:25;23.15;;;16.67;;
51475;SDS011;37554;50.362;7.568;2024-01-11T10:16:05;24.00;;;17.08;;
51475;SDS011;37554;50.362;7.568;2024-01-11T10:18:32;22.60;;;16.52;;
51475;SDS011;37554;50.362;7.568;2024-01-11T10:20:58;25.55;;;17.02;;
51475;SDS011;37554;50.362;7.568;2024-01-11T10:23:23;27.58;;;17.13;;
51475;SDS011;37554;50.362;7.568;2024-01-11T10:25:49;24.60;;;17.02;;
51475;SDS011;37554;50.362;7.568;2024-01-11T10:28:15;23.98;;;17.60;;
51475;SDS011;37554;50.362;7.568;2024-01-11T10:30:41;22.40;;;16.13;;
51475;SDS011;37554;50.362;7.568;2024-01-11T10:33:10;26.05;;;16.30;;
51475;SDS011;37554;50.362;7.568;2024-01-11T10:35:36;22.85;;;16.48;;
51475;SDS011;37554;50.362;7.568;2024-01-11T10:38:01;22.55;;;16.75;;
51475;SDS011;37554;50.362;7.568;2024-01-11T10:43:00;20.95;;;15.52;;
51475;SDS011;37554;50.362;7.568;2024-01-11T10:45:27;21.80;;;16.27;;
51475;SDS011;37554;50.362;7.568;2024-01-11T10:47:56;22.80;;;16.95;;
51475;SDS011;37554;50.362;7.568;2024-01-11T10:50:26;21.30;;;16.83;;
51475;SDS011;37554;50.362;7.568;2024-01-11T10:55:42;22.10;;;15.75;;
51475;SDS011;37554;50.362;7.568;2024-01-11T10:58:09;22.23;;;15.98;;
51475;SDS011;37554;50.362;7.568;2024-01-11T11:00:36;22.15;;;16.05;;
51475;SDS011;37554;50.362;7.568;2024-01-11T11:03:02;22.40;;;15.82;;
51475;SDS011;37554;50.362;7.568;2024-01-11T11:05:31;21.88;;;15.93;;
51475;SDS011;37554;50.362;7.568;2024-01-11T11:08:00;21.20;;;15.30;;
51475;SDS011;37554;50.362;7.568;2024-01-11T11:10:27;20.85;;;16.20;;
51475;SDS011;37554;50.362;7.568;2024-01-11T11:12:54;17.33;;;13.70;;
51475;SDS011;37554;50.362;7.568;2024-01-11T11:15:23;20.38;;;13.18;;
51475;SDS011;37554;50.362;7.568;2024-01-11T11:17:49;16.20;;;12.75;;
51475;SDS011;37554;50.362;7.568;2024-01-11T11:20:15;21.00;;;12.85;;
51475;SDS011;37554;50.362;7.568;2024-01-11T11:22:41;20.58;;;13.63;;
51475;SDS011;37554;50.362;7.568;2024-01-11T11:25:10;17.77;;;13.60;;
51475;SDS011;37554;50.362;7.568;2024-01-11T11:27:48;19.17;;;13.70;;
51475;SDS011;37554;50.362;7.568;2024-01-11T11:30:14;20.60;;;14.05;;
51475;SDS011;37554;50.362;7.568;2024-01-11T11:32:43;19.55;;;13.80;;
51475;SDS011;37554;50.362;7.568;2024-01-11T11:35:10;19.60;;;14.90;;
51475;SDS011;37554;50.362;7.568;2024-01-11T11:37:36;18.15;;;14.95;;
51475;SDS011;37554;50.362;7.568;2024-01-11T11:40:03;22.65;;;15.95;;
51475;SDS011;37554;50.362;7.568;2024-01-11T11:42:37;17.52;;;14.10;;
51475;SDS011;37554;50.362;7.568;2024-01-11T11:45:05;18.55;;;14.65;;
51475;SDS011;37554;50.362;7.568;2024-01-11T11:47:35;21.20;;;15.00;;
51475;SDS011;37554;50.362;7.568;2024-01-11T11:50:07;18.95;;;14.32;;
51475;SDS011;37554;50.362;7.568;2024-01-11T11:52:37;21.17;;;16.00;;
51475;SDS011;37554;50.362;7.568;2024-01-11T11:55:04;21.17;;;16.15;;
51475;SDS011;37554;50.362;7.568;2024-01-11T11:57:31;20.17;;;15.55;;
51475;SDS011;37554;50.362;7.568;2024-01-11T11:59:59;22.48;;;16.23;;
51475;SDS011;37554;50.362;7.568;2024-01-11T12:02:25;20.25;;;15.73;;
51475;SDS011;37554;50.362;7.568;2024-01-11T12:04:52;22.30;;;16.63;;
51475;SDS011;37554;50.362;7.568;2024-01-11T12:07:19;22.13;;;16.52;;
51475;SDS011;37554;50.362;7.568;2024-01-11T12:09:46;20.23;;;15.73;;
51475;SDS011;37554;50.362;7.568;2024-01-11T12:12:12;23.10;;;17.30;;
51475;SDS011;37554;50.362;7.568;2024-01-11T12:14:39;21.02;;;15.85;;
51475;SDS011;37554;50.362;7.568;2024-01-11T12:17:06;21.23;;;16.38;;
51475;SDS011;37554;50.362;7.568;2024-01-11T12:19:32;21.55;;;16.42;;
51475;SDS011;37554;50.362;7.568;2024-01-11T12:21:58;23.23;;;16.63;;
51475;SDS011;37554;50.362;7.568;2024-01-11T12:24:24;21.42;;;16.05;;
51475;SDS011;37554;50.362;7.568;2024-01-11T12:26:51;21.17;;;15.73;;
51475;SDS011;37554;50.362;7.568;2024-01-11T12:29:18;21.83;;;16.60;;
51475;SDS011;37554;50.362;7.568;2024-01-11T12:31:45;21.25;;;15.77;;
51475;SDS011;37554;50.362;7.568;2024-01-11T12:34:13;21.08;;;15.63;;
51475;SDS011;37554;50.362;7.568;2024-01-11T12:36:40;19.55;;;15.23;;
51475;SDS011;37554;50.362;7.568;2024-01-11T12:39:06;19.38;;;15.82;;
51475;SDS011;37554;50.362;7.568;2024-01-11T12:41:34;19.60;;;15.75;;
51475;SDS011;37554;50.362;7.568;2024-01-11T12:44:00;20.60;;;16.15;;
51475;SDS011;37554;50.362;7.568;2024-01-11T12:46:26;19.67;;;15.50;;
51475;SDS011;37554;50.362;7.568;2024-01-11T12:48:52;20.17;;;15.88;;
51475;SDS011;37554;50.362;7.568;2024-01-11T12:51:19;20.33;;;15.80;;
51475;SDS011;37554;50.362;7.568;2024-01-11T12:53:45;20.58;;;16.45;;
51475;SDS011;37554;50.362;7.568;2024-01-11T12:56:16;20.77;;;15.25;;
51475;SDS011;37554;50.362;7.568;2024-01-11T12:58:43;19.58;;;15.73;;
51475;SDS011;37554;50.362;7.568;2024-01-11T13:01:11;21.58;;;15.40;;
51475;SDS011;37554;50.362;7.568;2024-01-11T13:03:38;21.77;;;16.05;;
51475;SDS011;37554;50.362;7.568;2024-01-11T13:06:08;20.58;;;15.25;;
51475;SDS011;37554;50.362;7.568;2024-01-11T13:08:34;22.35;;;16.08;;
51475;SDS011;37554;50.362;7.568;2024-01-11T13:11:02;20.33;;;15.13;;
51475;SDS011;37554;50.362;7.568;2024-01-11T13:13:35;19.08;;;15.23;;
51475;SDS011;37554;50.362;7.568;2024-01-11T13:16:01;20.17;;;15.70;;
51475;SDS011;37554;50.362;7.568;2024-01-11T13:18:36;22.00;;;15.88;;
51475;SDS011;37554;50.362;7.568;2024-01-11T13:21:01;19.65;;;15.90;;
51475;SDS011;37554;50.362;7.568;2024-01-11T13:23:27;19.23;;;15.23;;
51475;SDS011;37554;50.362;7.568;2024-01-11T13:25:53;21.98;;;16.73;;
51475;SDS011;37554;50.362;7.568;2024-01-11T13:28:19;20.48;;;16.40;;
51475;SDS011;37554;50.362;7.568;2024-01-11T13:30:45;18.98;;;15.38;;
51475;SDS011;37554;50.362;7.568;2024-01-11T13:33:11;21.77;;;15.55;;
51475;SDS011;37554;50.362;7.568;2024-01-11T13:35:37;18.25;;;15.07;;
51475;SDS011;37554;50.362;7.568;2024-01-11T13:38:04;21.00;;;16.42;;
51475;SDS011;37554;50.362;7.568;2024-01-11T13:40:30;18.60;;;15.32;;
51475;SDS011;37554;50.362;7.568;2024-01-11T13:42:56;18.77;;;15.07;;
51475;SDS011;37554;50.362;7.568;2024-01-11T13:45:23;18.88;;;14.80;;
51475;SDS011;37554;50.362;7.568;2024-01-11T13:47:53;18.80;;;14.90;;
51475;SDS011;37554;50.362;7.568;2024-01-11T13:50:19;21.10;;;16.17;;
51475;SDS011;37554;50.362;7.568;2024-01-11T13:52:45;19.58;;;15.13;;
51475;SDS011;37554;50.362;7.568;2024-01-11T13:55:11;18.20;;;14.95;;
51475;SDS011;37554;50.362;7.568;2024-01-11T13:57:37;19.75;;;15.95;;
51475;SDS011;37554;50.362;7.568;2024-01-11T14:00:06;19.58;;;14.98;;
51475;SDS011;37554;50.362;7.568;2024-01-11T14:02:35;19.08;;;14.80;;
51475;SDS011;37554;50.362;7.568;2024-01-11T14:05:02;17.45;;;14.32;;
51475;SDS011;37554;50.362;7.568;2024-01-11T14:07:28;19.65;;;15.35;;
51475;SDS011;37554;50.362;7.568;2024-01-11T14:09:55;19.85;;;15.35;;
51475;SDS011;37554;50.362;7.568;2024-01-11T14:12:21;21.80;;;15.32;;
51475;SDS011;37554;50.362;7.568;2024-01-11T14:14:46;19.70;;;15.35;;
51475;SDS011;37554;50.362;7.568;2024-01-11T14:17:12;19.95;;;14.98;;
51475;SDS011;37554;50.362;7.568;2024-01-11T14:19:38;20.10;;;15.90;;
51475;SDS011;37554;50.362;7.568;2024-01-11T14:22:03;19.30;;;14.85;;
51475;SDS011;37554;50.362;7.568;2024-01-11T14:24:29;21.58;;;15.23;;